Portage Lake, Maine
Current Conditions -  °F | °C
As of 6:55 AM on Thursday 23 Oct 2014 (Local Time) from KPQI Reporting Station
Overcast Overcast  
Wind Chill: 37°   Ceiling: 3800
Heat Index: 43°   Visibility: 10mi
Dew Point: 36°   Wind: 12mph
Humidity: 76%   Direction: 30°NNE
Pressure: 30.17"   Gusts: NA
Location:  46.7854°N, 68.6205°W
Report Text: KPQI 231055Z AUTO 03010KT 10SM FEW019 SCT026 OVC038 06/02 A3017 RMK AO1
Loading
Personal Weather Stations






























Interactive Weather Map
Tropical Storm Tracking
New forecast layout! Learn more

10-Day Weather Forecast

Advertisements
Track Severe Weather on mobile